createdAt,value
2018-09-21T00:01:52.797Z,18.20
2018-09-21T00:04:01.808Z,17.47
2018-09-21T00:06:10.770Z,17.93
2018-09-21T00:08:16.033Z,19.23
2018-09-21T00:10:20.903Z,18.90
2018-09-21T00:12:25.856Z,17.20
2018-09-21T00:14:31.192Z,17.30
2018-09-21T00:16:36.027Z,17.17
2018-09-21T00:18:40.938Z,17.70
2018-09-21T00:20:45.691Z,17.70
2018-09-21T00:22:51.350Z,16.57
2018-09-21T00:24:56.145Z,17.60
2018-09-21T00:27:01.147Z,18.27
2018-09-21T00:29:05.943Z,18.20
2018-09-21T00:31:11.235Z,17.97
2018-09-21T00:33:16.176Z,16.00
2018-09-21T00:35:20.904Z,17.37
2018-09-21T00:37:25.881Z,15.70
2018-09-21T00:39:30.649Z,16.80
2018-09-21T00:41:36.383Z,16.30
2018-09-21T00:43:42.619Z,15.67
2018-09-21T00:45:47.432Z,16.40
2018-09-21T00:47:52.746Z,14.53
2018-09-21T00:49:57.802Z,15.37
2018-09-21T00:52:03.726Z,15.63
2018-09-21T00:54:09.091Z,15.70
2018-09-21T00:56:14.149Z,14.90
2018-09-21T00:58:19.245Z,15.13
2018-09-21T01:00:24.502Z,15.03
2018-09-21T01:02:29.684Z,14.70
2018-09-21T01:04:38.685Z,13.60
2018-09-21T01:06:44.245Z,14.10
2018-09-21T01:08:49.405Z,15.20
2018-09-21T01:10:54.701Z,15.73
2018-09-21T01:12:59.411Z,15.10
2018-09-21T01:15:04.425Z,15.13
2018-09-21T01:17:09.501Z,14.70
2018-09-21T01:19:14.369Z,15.00
2018-09-21T01:21:19.560Z,14.20
2018-09-21T01:23:24.511Z,13.30
2018-09-21T01:25:29.652Z,14.20
2018-09-21T01:27:34.712Z,14.67
2018-09-21T01:29:39.772Z,11.20
2018-09-21T01:31:44.842Z,10.13
2018-09-21T01:33:49.933Z,9.27
2018-09-21T01:35:55.565Z,10.03
2018-09-21T01:38:00.788Z,6.67
2018-09-21T01:40:05.945Z,8.40
2018-09-21T01:42:10.972Z,6.00
2018-09-21T01:44:16.012Z,6.37
2018-09-21T01:46:21.076Z,7.60
2018-09-21T01:48:27.354Z,6.87
2018-09-21T01:50:32.915Z,7.30
2018-09-21T01:52:38.004Z,6.50
2018-09-21T01:54:42.824Z,6.70
2018-09-21T01:56:48.126Z,7.87
2018-09-21T01:58:53.046Z,5.70
2018-09-21T02:00:58.299Z,6.03
2018-09-21T02:03:03.273Z,5.53
2018-09-21T02:05:11.332Z,5.63
2018-09-21T02:07:16.325Z,6.60
2018-09-21T02:09:21.450Z,4.97
2018-09-21T02:11:26.373Z,4.97
2018-09-21T02:16:01.864Z,4.30
2018-09-21T02:18:07.075Z,4.63
2018-09-21T02:20:11.975Z,4.40
2018-09-21T02:22:16.813Z,4.07
2018-09-21T02:24:21.989Z,3.30
2018-09-21T02:26:27.132Z,2.90
2018-09-21T02:28:31.976Z,3.80
2018-09-21T02:30:36.931Z,3.43
2018-09-21T02:32:42.248Z,3.50
2018-09-21T02:34:47.692Z,2.97
2018-09-21T02:36:52.767Z,3.00
2018-09-21T02:38:57.445Z,3.60
2018-09-21T02:41:02.265Z,3.50
2018-09-21T02:43:07.465Z,2.50
2018-09-21T02:45:14.436Z,3.27
2018-09-21T02:47:19.675Z,3.30
2018-09-21T02:49:24.549Z,2.87
2018-09-21T02:51:29.352Z,2.70
2018-09-21T02:53:34.540Z,2.23
2018-09-21T02:55:39.639Z,2.43
2018-09-21T02:57:44.444Z,2.30
2018-09-21T02:59:52.643Z,2.73
2018-09-21T03:01:57.803Z,2.30
2018-09-21T03:04:02.611Z,3.10
2018-09-21T03:06:07.698Z,2.20
2018-09-21T03:08:12.896Z,3.10
2018-09-21T03:10:18.409Z,2.10
2018-09-21T03:12:23.400Z,2.00
2018-09-21T03:14:28.759Z,2.40
2018-09-21T03:16:33.669Z,2.70
2018-09-21T03:18:43.087Z,2.50
2018-09-21T03:20:48.503Z,1.90
2018-09-21T03:22:53.568Z,1.87
2018-09-21T03:24:58.503Z,1.40
2018-09-21T03:27:03.976Z,1.33
2018-09-21T03:29:08.942Z,2.27
2018-09-21T03:31:14.208Z,1.80
2018-09-21T03:33:19.099Z,1.57
2018-09-21T03:35:24.148Z,2.07
2018-09-21T03:37:29.327Z,2.00
2018-09-21T03:39:34.166Z,1.60
2018-09-21T03:41:39.543Z,2.50
2018-09-21T03:43:44.794Z,2.53
2018-09-21T03:45:51.514Z,2.40
2018-09-21T03:47:56.362Z,2.40
2018-09-21T03:50:01.354Z,2.70
2018-09-21T03:52:06.110Z,2.60
2018-09-21T03:54:11.701Z,2.50
2018-09-21T03:56:16.746Z,2.57
2018-09-21T03:58:21.916Z,2.50
2018-09-21T04:00:26.991Z,2.43
2018-09-21T04:02:32.032Z,2.70
2018-09-21T04:04:37.599Z,2.80
2018-09-21T04:06:42.478Z,2.30
2018-09-21T04:08:47.213Z,2.67
2018-09-21T04:10:52.359Z,2.50
2018-09-21T04:12:57.350Z,3.03
2018-09-21T04:15:02.272Z,2.60
2018-09-21T04:17:07.256Z,2.80
2018-09-21T04:19:12.000Z,2.47
2018-09-21T04:21:16.938Z,2.97
2018-09-21T04:23:22.134Z,2.50
2018-09-21T04:25:27.147Z,2.73
2018-09-21T04:27:32.402Z,3.17
2018-09-21T04:29:37.238Z,2.80
2018-09-21T04:31:41.959Z,2.20
2018-09-21T04:33:46.986Z,3.13
2018-09-21T04:35:51.815Z,3.07
2018-09-21T04:37:56.764Z,2.87
2018-09-21T04:40:01.552Z,3.17
2018-09-21T04:42:06.708Z,2.53
2018-09-21T04:44:11.886Z,3.23
2018-09-21T04:46:16.547Z,3.00
2018-09-21T04:51:07.144Z,3.37
2018-09-21T04:53:12.220Z,2.60
2018-09-21T04:55:17.278Z,3.00
2018-09-21T04:57:22.156Z,3.10
2018-09-21T04:59:27.200Z,3.30
2018-09-21T05:01:32.093Z,3.53
2018-09-21T05:03:36.979Z,2.80
2018-09-21T05:05:41.933Z,2.83
2018-09-21T05:07:46.848Z,3.20
2018-09-21T05:09:51.899Z,3.13
2018-09-21T05:11:56.916Z,2.77
2018-09-21T05:14:01.824Z,2.97
2018-09-21T05:16:06.628Z,3.53
2018-09-21T05:18:11.473Z,2.93
2018-09-21T05:20:15.991Z,3.20
2018-09-21T05:22:21.064Z,2.90
2018-09-21T05:24:26.192Z,3.40
2018-09-21T05:26:30.841Z,3.00
2018-09-21T05:28:35.621Z,3.17
2018-09-21T05:30:40.823Z,3.50
2018-09-21T05:32:45.794Z,3.07
2018-09-21T05:34:50.645Z,3.40
2018-09-21T05:36:55.769Z,3.03
2018-09-21T05:39:00.583Z,3.57
2018-09-21T05:41:05.363Z,2.70
2018-09-21T05:43:10.554Z,3.37
2018-09-21T05:45:15.551Z,3.00
2018-09-21T05:47:20.370Z,3.47
2018-09-21T05:49:26.487Z,3.13
2018-09-21T05:51:31.561Z,3.03
2018-09-21T05:53:36.508Z,3.77
2018-09-21T05:55:41.216Z,3.03
2018-09-21T05:57:46.335Z,2.77
2018-09-21T05:59:51.010Z,3.70
2018-09-21T06:01:55.854Z,3.20
2018-09-21T06:04:00.582Z,2.60
2018-09-21T06:06:05.686Z,3.00
2018-09-21T06:08:10.876Z,3.23
2018-09-21T06:10:15.737Z,2.80
2018-09-21T06:12:20.587Z,2.90
2018-09-21T06:14:25.590Z,3.00
2018-09-21T06:16:30.368Z,3.00
2018-09-21T06:18:35.238Z,2.90
2018-09-21T06:20:40.164Z,3.40
2018-09-21T06:22:45.377Z,3.13
2018-09-21T06:24:50.363Z,3.73
2018-09-21T06:26:55.256Z,3.20
2018-09-21T06:29:00.117Z,2.90
2018-09-21T06:31:05.190Z,3.40
2018-09-21T06:33:09.906Z,2.80
2018-09-21T06:35:14.838Z,3.00
2018-09-21T06:37:19.735Z,2.73
2018-09-21T06:39:24.863Z,3.03
2018-09-21T06:41:29.796Z,2.73
2018-09-21T06:43:34.581Z,2.60
2018-09-21T06:45:39.354Z,2.70
2018-09-21T06:47:44.147Z,2.80
2018-09-21T06:49:48.971Z,3.70
2018-09-21T06:51:53.983Z,3.50
2018-09-21T06:53:59.693Z,3.00
2018-09-21T06:56:04.597Z,3.23
2018-09-21T06:58:10.157Z,3.00
2018-09-21T07:00:15.413Z,2.50
2018-09-21T07:02:20.143Z,2.90
2018-09-21T07:04:24.870Z,3.43
2018-09-21T07:06:30.004Z,3.13
2018-09-21T07:08:34.982Z,3.50
2018-09-21T07:10:39.936Z,3.13
2018-09-21T07:12:45.425Z,2.50
2018-09-21T07:14:50.282Z,2.90
2018-09-21T07:16:55.286Z,2.80
2018-09-21T07:19:00.087Z,3.00
2018-09-21T07:21:04.885Z,3.30
2018-09-21T07:23:09.578Z,3.33
2018-09-21T07:25:14.498Z,3.20
2018-09-21T07:27:19.503Z,2.97
2018-09-21T07:29:24.273Z,2.70
2018-09-21T07:31:29.108Z,2.80
2018-09-21T07:33:34.091Z,2.90
2018-09-21T07:35:39.116Z,3.10
2018-09-21T07:37:44.516Z,2.80
2018-09-21T07:39:49.466Z,2.60
2018-09-21T07:41:54.295Z,2.90
2018-09-21T07:43:59.173Z,2.60
2018-09-21T07:46:03.894Z,2.90
2018-09-21T07:48:09.086Z,2.77
2018-09-21T07:50:13.998Z,3.00
2018-09-21T07:52:19.005Z,3.10
2018-09-21T07:54:23.819Z,3.13
2018-09-21T07:56:28.819Z,3.10
2018-09-21T07:58:33.756Z,3.10
2018-09-21T08:00:38.629Z,3.23
2018-09-21T08:02:43.553Z,2.80
2018-09-21T08:04:48.416Z,3.13
2018-09-21T08:06:53.381Z,2.60
2018-09-21T08:08:58.230Z,3.40
2018-09-21T08:11:03.057Z,2.57
2018-09-21T08:13:08.235Z,2.80
2018-09-21T08:15:13.107Z,2.50
2018-09-21T08:17:17.934Z,2.50
2018-09-21T08:19:23.240Z,2.97
2018-09-21T08:21:27.993Z,2.97
2018-09-21T08:23:32.688Z,2.70
2018-09-21T08:25:37.709Z,2.63
2018-09-21T08:27:42.790Z,2.97
2018-09-21T08:29:47.708Z,3.03
2018-09-21T08:31:52.469Z,2.60
2018-09-21T08:33:57.330Z,2.73
2018-09-21T08:36:02.230Z,2.87
2018-09-21T08:38:06.980Z,2.77
2018-09-21T08:40:12.188Z,2.80
2018-09-21T08:42:17.126Z,2.90
2018-09-21T08:44:22.033Z,2.77
2018-09-21T08:46:26.852Z,2.70
2018-09-21T08:48:31.832Z,2.93
2018-09-21T08:50:36.902Z,2.93
2018-09-21T08:52:41.582Z,2.90
2018-09-21T08:54:46.235Z,2.63
2018-09-21T08:56:51.622Z,2.33
2018-09-21T08:58:56.325Z,3.17
2018-09-21T09:01:01.016Z,2.40
2018-09-21T09:03:06.206Z,2.33
2018-09-21T09:05:11.296Z,2.03
2018-09-21T09:07:16.199Z,2.60
2018-09-21T09:09:21.203Z,2.77
2018-09-21T09:11:26.159Z,3.00
2018-09-21T09:13:31.111Z,2.30
2018-09-21T09:15:36.301Z,2.50
2018-09-21T09:17:41.116Z,2.20
2018-09-21T09:19:46.042Z,2.30
2018-09-21T09:21:50.717Z,2.60
2018-09-21T09:23:55.765Z,3.03
2018-09-21T09:26:00.767Z,2.50
2018-09-21T09:28:05.629Z,2.40
2018-09-21T09:30:10.616Z,2.60
2018-09-21T09:32:15.808Z,2.20
2018-09-21T09:34:20.522Z,2.27
2018-09-21T09:36:25.255Z,2.50
2018-09-21T09:38:30.029Z,2.13
2018-09-21T09:40:34.958Z,3.20
2018-09-21T09:42:40.145Z,2.50
2018-09-21T09:44:44.922Z,2.20
2018-09-21T09:46:49.943Z,2.40
2018-09-21T09:48:55.000Z,2.30
2018-09-21T09:50:59.894Z,2.53
2018-09-21T09:53:04.835Z,3.60
2018-09-21T09:55:09.986Z,3.83
2018-09-21T09:57:14.830Z,2.70
2018-09-21T09:59:20.011Z,3.03
2018-09-21T10:01:24.995Z,2.73
2018-09-21T10:03:30.118Z,3.03
2018-09-21T10:05:35.305Z,3.20
2018-09-21T10:07:40.260Z,3.00
2018-09-21T10:09:45.306Z,3.50
2018-09-21T10:11:51.523Z,3.47
2018-09-21T10:13:56.460Z,14.50
2018-09-21T10:16:01.312Z,27.67
2018-09-21T10:18:06.209Z,13.67
2018-09-21T10:20:11.390Z,10.90
2018-09-21T10:22:16.204Z,10.10
2018-09-21T10:24:20.953Z,9.90
2018-09-21T10:26:25.770Z,8.70
2018-09-21T10:28:30.726Z,9.30
2018-09-21T10:30:35.947Z,8.50
2018-09-21T10:32:40.639Z,6.93
2018-09-21T10:34:47.041Z,7.40
2018-09-21T10:36:52.039Z,6.80
2018-09-21T10:38:56.946Z,7.07
2018-09-21T10:41:02.474Z,5.80
2018-09-21T10:43:07.489Z,5.80
2018-09-21T10:45:12.612Z,5.70
2018-09-21T10:47:17.615Z,5.03
2018-09-21T10:49:22.737Z,5.70
2018-09-21T10:51:27.691Z,5.40
2018-09-21T10:53:32.830Z,4.90
2018-09-21T10:55:37.838Z,5.03
2018-09-21T10:57:42.797Z,5.60
2018-09-21T10:59:47.859Z,5.27
2018-09-21T11:01:52.889Z,4.90
2018-09-21T11:03:57.791Z,4.70
2018-09-21T11:06:02.504Z,5.00
2018-09-21T11:08:07.500Z,4.53
2018-09-21T11:10:12.659Z,5.20
2018-09-21T11:12:17.394Z,4.97
2018-09-21T11:14:22.340Z,4.27
2018-09-21T11:16:27.276Z,4.73
2018-09-21T11:18:32.035Z,4.70
2018-09-21T11:20:36.766Z,5.07
2018-09-21T11:22:41.414Z,4.30
2018-09-21T11:24:46.340Z,5.40
2018-09-21T11:26:51.343Z,5.63
2018-09-21T11:28:56.171Z,5.67
2018-09-21T11:31:01.109Z,4.90
2018-09-21T11:33:06.053Z,5.27
2018-09-21T11:35:10.954Z,4.90
2018-09-21T11:37:15.803Z,4.60
2018-09-21T11:39:20.678Z,4.60
2018-09-21T11:41:25.334Z,4.10
2018-09-21T11:43:30.355Z,4.57
2018-09-21T11:45:35.537Z,3.90
2018-09-21T11:47:40.300Z,4.50
2018-09-21T11:49:45.293Z,4.40
2018-09-21T11:51:57.333Z,4.10
2018-09-21T11:54:02.390Z,3.70
2018-09-21T11:56:07.328Z,3.77
2018-09-21T11:58:12.251Z,4.70
2018-09-21T12:00:17.416Z,4.80
2018-09-21T12:02:22.527Z,4.23
2018-09-21T12:04:28.424Z,4.20
2018-09-21T12:06:33.448Z,4.47
2018-09-21T12:08:40.454Z,3.93
2018-09-21T12:10:45.625Z,3.83
2018-09-21T12:12:50.897Z,5.03
2018-09-21T12:14:55.963Z,5.10
2018-09-21T12:17:00.474Z,6.13
2018-09-21T12:19:06.533Z,6.40
2018-09-21T12:21:13.072Z,6.40
2018-09-21T12:23:17.995Z,6.07
2018-09-21T12:25:23.132Z,5.50
2018-09-21T12:27:28.172Z,5.67
2018-09-21T12:29:32.867Z,5.27
2018-09-21T12:31:40.482Z,5.60
2018-09-21T12:33:46.233Z,6.30
2018-09-21T12:35:51.964Z,5.60
2018-09-21T12:37:57.506Z,8.00
2018-09-21T12:40:03.963Z,11.13
2018-09-21T12:42:10.101Z,7.40
2018-09-21T12:44:15.696Z,11.63
2018-09-21T12:46:21.741Z,11.90
2018-09-21T12:48:28.639Z,15.30
2018-09-21T12:50:34.108Z,13.70
2018-09-21T12:52:40.311Z,15.37
2018-09-21T12:54:45.469Z,15.43
2018-09-21T12:56:50.452Z,16.40
2018-09-21T12:58:55.584Z,15.20
2018-09-21T13:01:01.604Z,15.20
2018-09-21T13:03:06.589Z,15.80
2018-09-21T13:05:11.823Z,12.07
2018-09-21T13:07:16.813Z,15.23
2018-09-21T13:09:21.676Z,13.87
2018-09-21T13:11:26.908Z,14.17
2018-09-21T13:13:31.895Z,10.83
2018-09-21T13:15:38.734Z,12.93
2018-09-21T13:17:43.860Z,11.87
2018-09-21T13:19:48.687Z,10.90
2018-09-21T13:21:53.555Z,10.03
2018-09-21T13:23:58.393Z,9.63
2018-09-21T13:26:03.326Z,10.97
2018-09-21T13:28:08.251Z,10.37
2018-09-21T13:30:13.024Z,10.00
2018-09-21T13:32:18.018Z,11.07
2018-09-21T13:34:22.968Z,10.17
2018-09-21T13:36:27.840Z,11.00
2018-09-21T13:38:33.499Z,11.37
2018-09-21T13:40:38.331Z,525.50
2018-09-21T13:42:42.966Z,721.33
2018-09-21T13:44:47.606Z,609.23
2018-09-21T13:46:52.571Z,185.33
2018-09-21T13:48:57.470Z,52.77
2018-09-21T13:51:02.573Z,41.50
2018-09-21T13:53:07.655Z,33.20
2018-09-21T13:55:13.287Z,28.70
2018-09-21T13:57:18.407Z,25.27
2018-09-21T13:59:23.398Z,27.03
2018-09-21T14:01:28.952Z,20.70
2018-09-21T14:03:33.724Z,20.20
2018-09-21T14:05:38.747Z,19.40
2018-09-21T14:07:44.317Z,18.30
2018-09-21T14:09:49.451Z,18.73
2018-09-21T14:11:54.314Z,18.37
2018-09-21T14:13:59.211Z,17.60
2018-09-21T14:16:04.130Z,15.07
2018-09-21T14:18:09.614Z,34.30
2018-09-21T14:20:14.909Z,26.60
2018-09-21T14:22:20.337Z,29.07
2018-09-21T14:24:25.142Z,24.27
2018-09-21T14:26:30.353Z,22.70
2018-09-21T14:28:35.154Z,25.90
2018-09-21T14:30:40.114Z,25.10
2018-09-21T14:32:45.208Z,23.57
2018-09-21T14:34:50.160Z,22.40
2018-09-21T14:36:55.358Z,22.23
2018-09-21T14:39:00.110Z,22.87
2018-09-21T14:41:05.122Z,21.67
2018-09-21T14:43:09.778Z,22.83
2018-09-21T14:45:14.826Z,22.83
2018-09-21T14:47:19.754Z,22.10
2018-09-21T14:49:25.164Z,22.53
2018-09-21T14:51:29.972Z,22.07
2018-09-21T14:53:34.963Z,21.37
2018-09-21T14:55:39.992Z,21.47
2018-09-21T14:57:44.853Z,22.80
2018-09-21T14:59:49.949Z,20.37
2018-09-21T15:01:54.749Z,19.00
2018-09-21T15:03:59.721Z,20.37
2018-09-21T15:06:04.665Z,19.70
2018-09-21T15:08:09.584Z,20.70
2018-09-21T15:10:14.557Z,20.10
2018-09-21T15:12:19.532Z,19.30
2018-09-21T15:14:24.679Z,19.47
2018-09-21T15:16:29.709Z,19.17
2018-09-21T15:18:34.636Z,18.20
2018-09-21T15:20:39.427Z,17.93
2018-09-21T15:22:44.315Z,17.90
2018-09-21T15:24:49.072Z,17.67
2018-09-21T15:26:54.089Z,19.43
2018-09-21T15:28:59.011Z,16.43
2018-09-21T15:31:05.038Z,19.37
2018-09-21T15:33:09.887Z,19.20
2018-09-21T15:35:14.695Z,18.47
2018-09-21T15:37:19.661Z,17.80
2018-09-21T15:39:25.141Z,17.20
2018-09-21T15:41:29.969Z,17.60
2018-09-21T15:43:35.077Z,16.50
2018-09-21T15:45:39.952Z,16.80
2018-09-21T15:47:44.658Z,15.43
2018-09-21T15:49:49.424Z,17.30
2018-09-21T15:51:54.462Z,15.77
2018-09-21T15:53:59.310Z,16.80
2018-09-21T15:56:04.247Z,15.23
2018-09-21T15:58:09.072Z,16.40
2018-09-21T16:00:13.999Z,15.93
2018-09-21T16:02:18.904Z,15.50
2018-09-21T16:04:23.905Z,13.80
2018-09-21T16:06:32.673Z,16.23
2018-09-21T16:08:37.477Z,14.93
2018-09-21T16:10:42.298Z,14.17
2018-09-21T16:12:47.323Z,13.37
2018-09-21T16:14:52.361Z,13.50
2018-09-21T16:16:57.286Z,14.13
2018-09-21T16:19:02.085Z,13.50
2018-09-21T16:21:06.868Z,13.20
2018-09-21T16:23:12.258Z,13.13
2018-09-21T16:25:17.034Z,13.90
2018-09-21T16:27:21.952Z,12.87
2018-09-21T16:29:27.208Z,13.43
2018-09-21T16:31:32.111Z,12.97
2018-09-21T16:33:37.032Z,12.90
2018-09-21T16:35:42.482Z,12.47
2018-09-21T16:37:47.575Z,12.83
2018-09-21T16:39:52.519Z,12.70
2018-09-21T16:41:57.439Z,11.80
2018-09-21T16:44:03.007Z,12.40
2018-09-21T16:46:08.160Z,12.20
2018-09-21T16:48:13.179Z,11.80
2018-09-21T16:50:18.157Z,10.80
2018-09-21T16:52:22.932Z,11.73
2018-09-21T16:54:28.109Z,11.27
2018-09-21T16:56:33.131Z,12.50
2018-09-21T16:58:38.141Z,10.97
2018-09-21T17:00:43.159Z,10.60
2018-09-21T17:02:48.207Z,11.10
2018-09-21T17:04:53.009Z,11.40
2018-09-21T17:06:58.301Z,10.87
2018-09-21T17:09:03.183Z,10.13
2018-09-21T17:11:08.307Z,11.50
2018-09-21T17:13:13.509Z,10.27
2018-09-21T17:15:18.278Z,11.20
2018-09-21T17:17:23.515Z,10.33
2018-09-21T17:19:28.472Z,10.53
2018-09-21T17:21:33.600Z,10.33
2018-09-21T17:23:38.575Z,10.90
2018-09-21T17:25:43.448Z,9.97
2018-09-21T17:27:48.819Z,10.53
2018-09-21T17:29:53.928Z,10.20
2018-09-21T17:31:59.035Z,10.00
2018-09-21T17:34:03.831Z,10.97
2018-09-21T17:36:08.828Z,10.03
2018-09-21T17:38:14.285Z,11.30
2018-09-21T17:40:19.576Z,10.10
2018-09-21T17:42:24.837Z,10.17
2018-09-21T17:44:29.713Z,10.47
2018-09-21T17:46:34.985Z,10.40
2018-09-21T17:49:42.477Z,10.50
2018-09-21T17:51:47.535Z,9.73
2018-09-21T17:53:52.338Z,11.33
2018-09-21T17:55:57.481Z,10.00
2018-09-21T17:58:02.288Z,11.07
2018-09-21T18:00:07.309Z,9.53
2018-09-21T18:02:12.587Z,9.70
2018-09-21T18:04:17.788Z,9.57
2018-09-21T18:06:22.833Z,10.80
2018-09-21T18:08:28.122Z,9.93
2018-09-21T18:10:34.344Z,9.67
2018-09-21T18:12:39.231Z,9.83
2018-09-21T18:14:44.336Z,9.43
2018-09-21T18:16:49.899Z,9.50
2018-09-21T18:18:55.139Z,9.80
2018-09-21T18:21:00.514Z,9.40
2018-09-21T18:23:05.503Z,11.03
2018-09-21T18:25:10.791Z,9.73
2018-09-21T18:27:15.850Z,9.10
2018-09-21T18:29:21.243Z,10.73
2018-09-21T18:31:26.520Z,11.80
2018-09-21T18:33:32.016Z,11.20
2018-09-21T18:35:37.074Z,10.63
2018-09-21T18:37:42.259Z,10.67
2018-09-21T18:39:47.148Z,10.50
2018-09-21T18:41:52.307Z,10.50
2018-09-21T18:43:57.223Z,11.03
2018-09-21T18:46:02.114Z,11.40
2018-09-21T18:48:07.091Z,11.90
2018-09-21T18:50:11.992Z,11.60
2018-09-21T18:52:18.367Z,10.40
2018-09-21T18:54:23.834Z,11.20
2018-09-21T18:56:28.936Z,10.20
2018-09-21T18:58:33.847Z,10.23
2018-09-21T19:00:39.006Z,9.90
2018-09-21T19:02:44.099Z,10.53
2018-09-21T19:04:49.286Z,10.57
2018-09-21T19:06:54.398Z,10.27
2018-09-21T19:08:59.395Z,9.07
2018-09-21T19:11:04.880Z,9.17
2018-09-21T19:13:09.937Z,9.50
2018-09-21T19:15:15.101Z,8.57
2018-09-21T19:17:21.965Z,9.47
2018-09-21T19:19:28.074Z,9.30
2018-09-21T19:21:33.131Z,10.07
2018-09-21T19:23:38.195Z,8.70
2018-09-21T19:25:43.259Z,9.30
2018-09-21T19:27:48.254Z,9.17
2018-09-21T19:29:53.239Z,9.50
2018-09-21T19:31:58.189Z,8.77
2018-09-21T19:34:03.708Z,9.00
2018-09-21T19:36:08.561Z,8.70
2018-09-21T19:38:14.138Z,8.90
2018-09-21T19:40:19.197Z,9.30
2018-09-21T19:42:24.699Z,9.07
2018-09-21T19:44:29.906Z,8.60
2018-09-21T19:46:35.201Z,8.47
2018-09-21T19:48:40.329Z,8.30
2018-09-21T19:50:45.423Z,8.50
2018-09-21T19:52:50.612Z,7.93
2018-09-21T19:54:55.827Z,9.40
2018-09-21T19:57:00.787Z,9.00
2018-09-21T19:59:05.893Z,8.53
2018-09-21T20:01:10.822Z,8.80
2018-09-21T20:03:15.703Z,8.27
2018-09-21T20:05:20.734Z,8.33
2018-09-21T20:07:25.936Z,7.20
2018-09-21T20:09:30.758Z,7.60
2018-09-21T20:11:36.235Z,7.07
2018-09-21T20:13:41.111Z,6.83
2018-09-21T20:15:46.015Z,7.70
2018-09-21T20:17:51.033Z,7.80
2018-09-21T20:19:56.381Z,7.50
2018-09-21T20:22:01.714Z,8.27
2018-09-21T20:24:07.129Z,8.13
2018-09-21T20:26:12.218Z,6.90
2018-09-21T20:28:17.284Z,6.97
2018-09-21T20:30:26.383Z,7.77
2018-09-21T20:33:34.262Z,8.40
2018-09-21T20:35:39.209Z,8.67
2018-09-21T20:37:44.526Z,9.50
2018-09-21T20:39:49.428Z,7.33
2018-09-21T20:41:54.483Z,7.80
2018-09-21T20:43:59.242Z,7.90
2018-09-21T20:46:04.310Z,7.87
2018-09-21T20:48:09.708Z,7.63
2018-09-21T20:50:14.614Z,7.73
2018-09-21T20:52:19.625Z,7.53
2018-09-21T20:54:24.618Z,7.80
2018-09-21T20:56:29.656Z,7.00
2018-09-21T20:58:34.583Z,7.70
2018-09-21T21:00:39.576Z,7.67
2018-09-21T21:02:44.522Z,7.23
2018-09-21T21:04:49.522Z,6.83
2018-09-21T21:06:54.825Z,6.90
2018-09-21T21:09:00.230Z,7.37
2018-09-21T21:11:05.572Z,7.20
2018-09-21T21:13:10.691Z,7.60
2018-09-21T21:15:15.739Z,6.90
2018-09-21T21:17:21.085Z,6.70
2018-09-21T21:19:26.148Z,7.00
2018-09-21T21:21:31.354Z,6.30
2018-09-21T21:23:36.733Z,7.50
2018-09-21T21:25:41.716Z,6.90
2018-09-21T21:27:46.934Z,6.60
2018-09-21T21:29:51.914Z,6.83
2018-09-21T21:31:57.095Z,7.83
2018-09-21T21:34:01.991Z,6.53
2018-09-21T21:36:08.490Z,5.80
2018-09-21T21:38:13.412Z,6.23
2018-09-21T21:40:18.341Z,6.53
2018-09-21T21:42:23.353Z,6.23
2018-09-21T21:44:28.026Z,6.70
2018-09-21T21:46:33.092Z,6.60
2018-09-21T21:48:38.432Z,6.37
2018-09-21T21:50:44.266Z,7.03
2018-09-21T21:52:49.923Z,7.20
2018-09-21T21:54:57.150Z,7.23
2018-09-21T21:57:02.645Z,7.10
2018-09-21T21:59:08.259Z,7.47
2018-09-21T22:01:18.022Z,6.03
2018-09-21T22:03:23.939Z,6.73
2018-09-21T22:05:29.974Z,6.67
2018-09-21T22:07:38.176Z,6.30
2018-09-21T22:09:43.640Z,6.43
2018-09-21T22:11:53.262Z,5.80
2018-09-21T22:14:02.704Z,6.27
2018-09-21T22:16:08.761Z,7.83
2018-09-21T22:18:14.785Z,9.70
2018-09-21T22:20:20.482Z,7.60
2018-09-21T22:22:25.703Z,8.00
2018-09-21T22:24:32.014Z,8.20
2018-09-21T22:26:41.389Z,8.30
2018-09-21T22:28:47.185Z,6.87
2018-09-21T22:30:53.127Z,7.17
2018-09-21T22:32:58.674Z,6.93
2018-09-21T22:35:04.209Z,7.80
2018-09-21T22:37:09.470Z,6.60
2018-09-21T22:39:14.546Z,8.60
2018-09-21T22:41:19.946Z,11.23
2018-09-21T22:43:25.816Z,21.07
2018-09-21T22:47:44.530Z,9.78
2018-09-21T22:49:49.277Z,13.43
2018-09-21T22:51:54.195Z,10.30
2018-09-21T22:53:59.331Z,10.77
2018-09-21T22:56:04.245Z,16.20
2018-09-21T22:58:09.140Z,11.60
2018-09-21T23:00:14.162Z,11.67
2018-09-21T23:02:19.175Z,9.77
2018-09-21T23:04:24.200Z,8.57
2018-09-21T23:06:29.096Z,9.40
2018-09-21T23:08:34.171Z,9.63
2018-09-21T23:10:39.152Z,10.20
2018-09-21T23:12:44.105Z,8.30
2018-09-21T23:14:48.849Z,8.90
2018-09-21T23:16:53.753Z,8.50
2018-09-21T23:18:58.622Z,7.70
2018-09-21T23:21:03.690Z,7.20
2018-09-21T23:23:09.232Z,7.20
2018-09-21T23:25:15.224Z,6.77
2018-09-21T23:27:20.407Z,7.93
2018-09-21T23:29:28.925Z,7.53
2018-09-21T23:31:33.791Z,7.40
2018-09-21T23:33:38.998Z,6.63
2018-09-21T23:35:44.610Z,8.47
2018-09-21T23:37:49.744Z,7.60
2018-09-21T23:39:54.732Z,7.37
2018-09-21T23:41:59.819Z,8.77
2018-09-21T23:44:05.040Z,6.70
2018-09-21T23:46:10.093Z,7.87
2018-09-21T23:48:17.502Z,7.20
2018-09-21T23:50:23.091Z,6.40
2018-09-21T23:52:28.674Z,7.47
2018-09-21T23:54:33.984Z,6.60
2018-09-21T23:56:38.772Z,6.30
2018-09-21T23:58:43.606Z,6.73
